Time;durP1;ratioP1;P1;durP2;ratioP2;P2;SDS_P1;SDS_P2;PMS_P1;PMS_P2;Temp;Humidity;BMP_temperature;BMP_pressure;BME280_temperature;BME280_humidity;BME280_pressure;Samples;Min_cycle;Max_cycle;Signal;HPM_P1;HPM_P2
2021/01/12 00:01:44;;;;;;;14.05;5.20;;;1.60;79.50;;;;;;4952639;28;20055;-81
2021/01/12 00:04:18;;;;;;;10.00;4.85;;;1.50;80.10;;;;;;4968127;28;20396;-83
2021/01/12 00:06:49;;;;;;;11.05;5.30;;;1.60;79.90;;;;;;4971717;28;20050;-82
2021/01/12 00:09:18;;;;;;;11.40;4.65;;;1.70;79.70;;;;;;4969404;28;20065;-83
2021/01/12 00:11:45;;;;;;;13.15;4.47;;;1.60;79.90;;;;;;4968842;28;20119;-84
2021/01/12 00:16:56;;;;;;;12.63;5.38;;;1.60;80.20;;;;;;4973163;28;20054;-84
2021/01/12 00:19:24;;;;;;;12.75;5.72;;;1.60;80.30;;;;;;4953438;28;20097;-83
2021/01/12 00:21:54;;;;;;;9.05;4.53;;;1.60;80.60;;;;;;4970659;28;20134;-84
2021/01/12 00:24:22;;;;;;;12.13;5.57;;;1.70;80.50;;;;;;4951075;28;20092;-83
2021/01/12 00:26:50;;;;;;;11.15;6.07;;;1.70;80.60;;;;;;4973531;28;20245;-85
2021/01/12 00:29:18;;;;;;;13.90;5.65;;;1.70;80.60;;;;;;4969820;28;20051;-85
2021/01/12 00:31:48;;;;;;;10.18;5.03;;;1.70;80.50;;;;;;4971809;28;20058;-83
2021/01/12 00:34:16;;;;;;;13.07;4.68;;;1.70;80.70;;;;;;4973422;28;20081;-84
2021/01/12 00:36:45;;;;;;;12.43;5.20;;;1.70;80.60;;;;;;4954312;28;20047;-86
2021/01/12 00:39:15;;;;;;;11.88;5.20;;;1.70;80.70;;;;;;4971654;28;20370;-85
2021/01/12 00:41:46;;;;;;;12.35;5.65;;;1.70;80.80;;;;;;4973033;28;20384;-83
2021/01/12 00:44:13;;;;;;;10.65;5.47;;;1.70;81.10;;;;;;4975369;28;20058;-83
2021/01/12 00:46:44;;;;;;;9.73;4.90;;;1.70;81.20;;;;;;4975602;28;20118;-85
2021/01/12 00:49:13;;;;;;;9.02;4.43;;;1.70;81.10;;;;;;4955626;28;20066;-81
2021/01/12 00:51:42;;;;;;;10.77;4.90;;;1.70;81.30;;;;;;4975210;28;20054;-85
2021/01/12 00:54:12;;;;;;;13.63;5.07;;;1.80;81.20;;;;;;4950801;28;20035;-83
2021/01/12 00:56:40;;;;;;;10.13;4.90;;;1.80;81.50;;;;;;4967401;28;20073;-86
2021/01/12 00:59:09;;;;;;;12.75;5.82;;;1.80;81.60;;;;;;4959482;28;20062;-84
2021/01/12 01:01:40;;;;;;;12.52;5.35;;;1.80;81.90;;;;;;4975417;28;20051;-82
2021/01/12 01:04:08;;;;;;;12.27;5.10;;;1.80;81.80;;;;;;4975401;28;20130;-84
2021/01/12 01:06:36;;;;;;;13.88;5.40;;;1.80;82.00;;;;;;4959975;28;20031;-85
2021/01/12 01:09:06;;;;;;;12.48;4.43;;;1.80;81.90;;;;;;4958778;28;20066;-81
2021/01/12 01:11:33;;;;;;;12.80;6.40;;;1.80;81.80;;;;;;4975759;28;20254;-85
2021/01/12 01:14:00;;;;;;;12.70;4.32;;;1.80;81.80;;;;;;4973411;28;20365;-84
2021/01/12 01:16:33;;;;;;;11.65;5.35;;;1.80;81.80;;;;;;4975128;28;20050;-84
2021/01/12 01:19:00;;;;;;;12.02;5.15;;;1.90;81.80;;;;;;4975055;28;20051;-83
2021/01/12 01:21:29;;;;;;;11.70;5.20;;;1.90;81.60;;;;;;4968823;28;20055;-84
2021/01/12 01:23:56;;;;;;;19.48;4.65;;;1.90;81.50;;;;;;4971152;28;20146;-81
2021/01/12 01:26:23;;;;;;;12.20;5.68;;;1.90;81.40;;;;;;4957273;28;20151;-83
2021/01/12 01:28:51;;;;;;;9.77;4.70;;;1.90;81.60;;;;;;4973046;28;20123;-84
2021/01/12 01:31:18;;;;;;;9.40;4.70;;;1.90;81.70;;;;;;4973848;28;20262;-85
2021/01/12 01:33:47;;;;;;;14.98;6.13;;;1.90;81.50;;;;;;4940960;28;20054;-82
2021/01/12 01:36:15;;;;;;;9.32;5.05;;;1.90;82.20;;;;;;4954853;28;20245;-83
2021/01/12 01:38:44;;;;;;;12.70;5.63;;;1.90;83.30;;;;;;4957584;28;20158;-84
2021/01/12 01:41:12;;;;;;;11.23;4.72;;;1.90;83.80;;;;;;4975595;28;20061;-83
2021/01/12 01:43:43;;;;;;;11.80;5.50;;;1.70;85.00;;;;;;4948452;28;20265;-81
2021/01/12 01:46:11;;;;;;;12.18;4.97;;;1.60;85.80;;;;;;4952216;28;20108;-83
2021/01/12 01:48:38;;;;;;;12.75;5.07;;;1.60;86.30;;;;;;4953838;28;20054;-84
2021/01/12 01:51:08;;;;;;;12.50;5.45;;;1.50;86.70;;;;;;4953893;28;20062;-84
2021/01/12 01:53:36;;;;;;;11.43;5.38;;;1.50;87.40;;;;;;4959023;28;20055;-82
2021/01/12 01:56:05;;;;;;;13.90;6.03;;;1.50;87.80;;;;;;4969480;28;20084;-83
2021/01/12 01:58:32;;;;;;;14.70;5.57;;;1.30;88.90;;;;;;4942561;28;20059;-82
2021/01/12 02:01:04;;;;;;;14.35;6.43;;;1.30;89.90;;;;;;4957152;28;20054;-82
2021/01/12 02:03:38;;;;;;;13.63;6.90;;;1.20;90.40;;;;;;4972906;28;20559;-84
2021/01/12 02:06:19;;;;;;;10.77;5.55;;;1.20;90.90;;;;;;4968338;28;20544;-84
2021/01/12 02:08:54;;;;;;;13.13;5.78;;;1.20;90.70;;;;;;4973485;28;20047;-84
2021/01/12 02:11:24;;;;;;;12.05;4.65;;;1.20;91.30;;;;;;4949739;28;20045;-82
2021/01/12 02:13:56;;;;;;;11.30;5.43;;;1.20;91.30;;;;;;4960171;28;20370;-84
2021/01/12 02:16:31;;;;;;;10.73;4.38;;;1.10;91.70;;;;;;4973980;28;20050;-82
2021/01/12 02:18:59;;;;;;;14.20;6.63;;;1.10;91.60;;;;;;4957686;28;20077;-84
2021/01/12 02:21:29;;;;;;;11.75;5.97;;;1.10;91.80;;;;;;4957669;28;20110;-83
2021/01/12 02:23:59;;;;;;;13.18;5.57;;;1.10;91.80;;;;;;4959442;28;20059;-84
2021/01/12 02:26:28;;;;;;;10.95;4.72;;;1.10;91.70;;;;;;4976207;28;20127;-83
2021/01/12 02:28:55;;;;;;;11.00;4.18;;;1.10;91.60;;;;;;4970750;28;20054;-83
2021/01/12 02:31:24;;;;;;;12.05;5.57;;;1.20;91.50;;;;;;4962430;28;20058;-83
2021/01/12 02:33:53;;;;;;;7.97;4.40;;;1.20;91.40;;;;;;4973935;28;20054;-82
2021/01/12 02:36:22;;;;;;;18.17;5.50;;;1.20;91.10;;;;;;4972581;28;20057;-84
2021/01/12 02:38:49;;;;;;;11.57;5.40;;;1.20;90.90;;;;;;4972174;28;20069;-83
2021/01/12 02:41:19;;;;;;;14.52;5.55;;;1.20;90.70;;;;;;4973341;28;20061;-82
2021/01/12 02:43:47;;;;;;;11.05;4.88;;;1.20;90.70;;;;;;4956840;28;20054;-83
2021/01/12 02:46:16;;;;;;;12.55;7.30;;;1.30;90.70;;;;;;4976279;28;20257;-85
2021/01/12 02:48:43;;;;;;;7.43;4.82;;;1.30;90.90;;;;;;4969648;28;20050;-83
2021/01/12 02:51:12;;;;;;;9.50;5.47;;;1.30;91.10;;;;;;4957047;28;20046;-85
2021/01/12 02:53:39;;;;;;;14.02;6.22;;;1.30;91.20;;;;;;4973334;28;20046;-82
2021/01/12 02:56:06;;;;;;;13.35;5.20;;;1.30;91.40;;;;;;4970562;28;20098;-83
2021/01/12 02:58:37;;;;;;;9.80;4.85;;;1.20;91.20;;;;;;4971898;28;20062;-82
2021/01/12 03:01:06;;;;;;;13.80;5.57;;;1.20;91.30;;;;;;4958956;28;20096;-82
2021/01/12 03:03:35;;;;;;;14.77;6.53;;;1.20;91.40;;;;;;4954640;28;20672;-82
2021/01/12 03:06:05;;;;;;;12.18;6.22;;;1.30;91.40;;;;;;4975521;28;20043;-85
2021/01/12 03:08:33;;;;;;;11.88;5.57;;;1.30;91.10;;;;;;4957214;28;20050;-81
2021/01/12 03:11:00;;;;;;;13.15;6.82;;;1.40;89.90;;;;;;4973665;28;20055;-84
2021/01/12 03:13:27;;;;;;;13.27;5.72;;;1.40;90.00;;;;;;4970051;28;20058;-85
2021/01/12 03:15:55;;;;;;;11.10;5.68;;;1.40;89.60;;;;;;4939425;28;20069;-85
2021/01/12 03:18:22;;;;;;;18.30;6.30;;;1.50;89.00;;;;;;4970871;28;20341;-85
2021/01/12 03:20:49;;;;;;;13.38;5.15;;;1.50;88.60;;;;;;4955653;28;20098;-83
2021/01/12 03:23:16;;;;;;;12.32;5.97;;;1.60;88.70;;;;;;4970634;28;20314;-83
2021/01/12 03:25:43;;;;;;;14.40;5.22;;;1.60;88.60;;;;;;4974380;28;20051;-81
2021/01/12 03:28:11;;;;;;;11.38;6.03;;;1.60;88.40;;;;;;4975116;28;20078;-84
2021/01/12 03:30:38;;;;;;;13.02;5.47;;;1.70;88.00;;;;;;4941665;28;20059;-82
2021/01/12 03:33:06;;;;;;;10.57;5.50;;;1.70;88.00;;;;;;4973666;28;20054;-84
2021/01/12 03:35:35;;;;;;;12.07;6.10;;;1.70;87.90;;;;;;4974115;28;20059;-86
2021/01/12 03:38:02;;;;;;;16.20;5.38;;;1.80;88.20;;;;;;4972109;28;20058;-82
2021/01/12 03:40:29;;;;;;;13.10;5.60;;;1.70;88.00;;;;;;4973182;28;20070;-86
2021/01/12 03:42:56;;;;;;;13.27;4.72;;;1.80;87.30;;;;;;4972665;28;20380;-82
2021/01/12 03:45:23;;;;;;;12.63;5.32;;;1.80;87.70;;;;;;4972672;28;20066;-82
2021/01/12 03:47:50;;;;;;;13.50;5.22;;;1.80;87.70;;;;;;4970975;28;20082;-80
2021/01/12 03:50:19;;;;;;;10.30;4.90;;;1.80;87.20;;;;;;4974338;28;20049;-83
2021/01/12 03:52:46;;;;;;;11.32;5.68;;;1.80;87.60;;;;;;4972432;28;20066;-84
2021/01/12 03:55:13;;;;;;;14.38;5.47;;;1.80;87.80;;;;;;4969166;28;20129;-83
2021/01/12 03:57:40;;;;;;;11.20;5.10;;;1.90;87.40;;;;;;4972709;28;20051;-83
2021/01/12 04:00:08;;;;;;;13.45;6.72;;;1.80;87.70;;;;;;4971026;28;20062;-84
2021/01/12 04:02:44;;;;;;;10.20;5.18;;;1.80;88.00;;;;;;4957109;28;20345;-85
2021/01/12 04:05:12;;;;;;;10.77;4.28;;;1.80;87.80;;;;;;4969834;28;20073;-83
2021/01/12 04:07:40;;;;;;;10.98;5.30;;;1.80;87.80;;;;;;4971767;28;20062;-83
2021/01/12 04:10:08;;;;;;;11.50;4.78;;;1.80;88.00;;;;;;4973616;28;20365;-81
2021/01/12 04:12:35;;;;;;;13.23;5.47;;;1.80;88.00;;;;;;4969149;28;20130;-85
2021/01/12 04:15:03;;;;;;;10.68;4.65;;;1.70;88.50;;;;;;4961282;28;20063;-83
2021/01/12 04:17:30;;;;;;;12.00;5.07;;;1.70;88.80;;;;;;4981751;28;20059;-85
2021/01/12 04:19:57;;;;;;;8.65;4.65;;;1.70;89.30;;;;;;4975775;28;20055;-85
2021/01/12 04:22:25;;;;;;;12.05;5.53;;;1.70;89.50;;;;;;4983656;28;20246;-81
2021/01/12 04:24:55;;;;;;;;;;;1.60;89.90;;;;;;4985411;28;20054;-80
2021/01/12 04:27:22;;;;;;;11.15;5.25;;;1.60;90.10;;;;;;4984853;28;19926;-81
2021/01/12 04:29:49;;;;;;;11.15;5.35;;;1.60;90.30;;;;;;4983588;28;20051;-82
2021/01/12 04:32:17;;;;;;;11.23;6.03;;;1.60;90.80;;;;;;4968973;28;20054;-81
2021/01/12 04:34:44;;;;;;;9.13;4.55;;;1.50;91.20;;;;;;4967461;28;20090;-84
2021/01/12 04:37:10;;;;;;;10.20;5.13;;;1.50;91.30;;;;;;4952165;28;20051;-81
2021/01/12 04:39:37;;;;;;;12.23;4.82;;;1.50;91.50;;;;;;4981332;28;20061;-82
2021/01/12 04:42:06;;;;;;;12.20;5.60;;;1.50;91.80;;;;;;4950399;28;20063;-83
2021/01/12 04:44:34;;;;;;;9.73;4.55;;;1.50;92.30;;;;;;4970117;28;20062;-82
2021/01/12 04:47:01;;;;;;;12.45;5.40;;;1.40;92.70;;;;;;4984252;28;20058;-82
2021/01/12 04:49:30;;;;;;;12.02;5.75;;;1.40;92.70;;;;;;4984960;28;20755;-81
2021/01/12 04:51:58;;;;;;;10.18;4.95;;;1.40;92.90;;;;;;4983323;28;20229;-83
2021/01/12 04:54:31;;;;;;;12.10;4.38;;;1.40;93.00;;;;;;4982694;28;21759;-83
2021/01/12 04:56:58;;;;;;;10.07;4.45;;;1.40;93.00;;;;;;4983963;28;20066;-83
2021/01/12 04:59:30;;;;;;;14.85;4.00;;;1.30;93.50;;;;;;4984732;28;20057;-84
2021/01/12 05:01:57;;;;;;;9.10;4.20;;;1.40;93.30;;;;;;4964778;28;20050;-83
2021/01/12 05:04:24;;;;;;;8.93;4.28;;;1.40;93.50;;;;;;4968281;28;20066;-83
2021/01/12 05:06:54;;;;;;;11.07;4.65;;;1.40;93.40;;;;;;4965620;28;20385;-83
2021/01/12 05:09:23;;;;;;;9.88;3.67;;;1.40;93.80;;;;;;4982445;28;20345;-83
2021/01/12 05:11:53;;;;;;;7.45;3.55;;;1.40;93.80;;;;;;4984474;28;20265;-83
2021/01/12 05:14:23;;;;;;;9.57;3.90;;;1.40;93.90;;;;;;4979332;28;20336;-83
2021/01/12 05:16:53;;;;;;;8.55;3.13;;;1.40;93.70;;;;;;4985442;28;20121;-81
2021/01/12 05:19:22;;;;;;;8.13;3.17;;;1.40;93.60;;;;;;4981671;28;20066;-80
2021/01/12 05:21:50;;;;;;;7.45;3.25;;;1.40;93.80;;;;;;4964946;28;20053;-81
2021/01/12 05:24:19;;;;;;;7.75;3.40;;;1.40;93.80;;;;;;4947581;28;20249;-82
2021/01/12 05:26:48;;;;;;;10.00;4.25;;;1.40;94.00;;;;;;4983392;28;20066;-83
2021/01/12 05:29:16;;;;;;;4.85;2.85;;;1.40;94.00;;;;;;4983511;28;20054;-79
2021/01/12 05:31:45;;;;;;;7.00;2.97;;;1.40;94.10;;;;;;4969437;28;20671;-80
2021/01/12 05:34:16;;;;;;;8.98;3.58;;;1.40;94.00;;;;;;4989441;28;20304;-82
2021/01/12 05:37:00;;;;;;;5.80;2.90;;;1.40;93.90;;;;;;4965889;28;20042;-80
2021/01/12 05:39:36;;;;;;;8.05;2.80;;;1.40;94.20;;;;;;4950876;28;20118;-85
2021/01/12 05:42:06;;;;;;;5.00;2.83;;;1.40;94.20;;;;;;4982723;28;20050;-83
2021/01/12 05:44:36;;;;;;;6.30;2.50;;;1.40;94.20;;;;;;4963423;28;20078;-82
2021/01/12 05:47:05;;;;;;;8.23;3.45;;;1.40;94.30;;;;;;4952008;28;20230;-83
2021/01/12 05:49:33;;;;;;;9.23;2.90;;;1.50;94.10;;;;;;4949869;28;20058;-84
2021/01/12 05:52:02;;;;;;;6.57;2.92;;;1.50;94.00;;;;;;4981987;28;20055;-81
2021/01/12 05:54:36;;;;;;;7.45;2.90;;;1.40;94.10;;;;;;4965060;28;20051;-82
2021/01/12 05:57:05;;;;;;;6.20;2.70;;;1.40;94.30;;;;;;4986671;28;20078;-80
2021/01/12 05:59:33;;;;;;;6.88;2.55;;;1.30;94.40;;;;;;4984466;28;20059;-81
2021/01/12 06:02:03;;;;;;;6.93;3.30;;;1.30;94.60;;;;;;4981536;28;20070;-81
2021/01/12 06:04:36;;;;;;;17.05;2.50;;;1.30;94.40;;;;;;4968626;28;20113;-82
2021/01/12 06:07:05;;;;;;;5.35;2.33;;;1.30;94.30;;;;;;4965846;28;20058;-82
2021/01/12 06:09:32;;;;;;;9.98;3.08;;;1.30;94.50;;;;;;4985111;28;20062;-82
2021/01/12 06:12:00;;;;;;;4.63;2.53;;;1.40;94.30;;;;;;4967948;28;20043;-85
2021/01/12 06:14:28;;;;;;;7.40;3.00;;;1.30;94.30;;;;;;4987131;28;20101;-82
2021/01/12 06:16:57;;;;;;;6.53;2.95;;;1.20;94.60;;;;;;4969581;28;20106;-81
2021/01/12 06:19:25;;;;;;;4.45;2.25;;;1.30;94.70;;;;;;4984617;28;20175;-80
2021/01/12 06:22:19;;;;;;;6.75;2.88;;;1.20;94.80;;;;;;4984297;28;20069;-81
2021/01/12 06:25:00;;;;;;;6.30;2.65;;;1.20;94.90;;;;;;4968400;28;20089;-80
2021/01/12 06:27:35;;;;;;;8.07;3.13;;;1.20;94.90;;;;;;4967153;28;20057;-83
2021/01/12 06:30:06;;;;;;;6.30;2.22;;;1.30;94.70;;;;;;4984511;28;20054;-85
2021/01/12 06:32:34;;;;;;;9.07;3.35;;;1.30;94.60;;;;;;4969622;28;20078;-84
2021/01/12 06:35:06;;;;;;;5.72;2.17;;;1.20;94.70;;;;;;4967164;28;20047;-83
2021/01/12 06:37:40;;;;;;;8.63;1.83;;;1.20;94.90;;;;;;4980243;28;20214;-82
2021/01/12 06:40:09;;;;;;;5.68;2.75;;;1.30;94.80;;;;;;4967834;28;20203;-81
2021/01/12 06:42:38;;;;;;;4.57;2.13;;;1.30;94.70;;;;;;4968734;28;20070;-80
2021/01/12 06:45:07;;;;;;;4.50;2.25;;;1.30;94.70;;;;;;4967446;28;20365;-83
2021/01/12 06:47:35;;;;;;;4.25;2.47;;;1.40;94.60;;;;;;4983416;28;20050;-82
2021/01/12 06:50:05;;;;;;;3.22;1.83;;;1.30;94.40;;;;;;4984000;28;20097;-84
2021/01/12 06:52:43;;;;;;;6.15;2.13;;;1.30;94.70;;;;;;4983109;28;20058;-83
2021/01/12 06:55:11;;;;;;;4.88;2.25;;;1.40;94.60;;;;;;4981504;28;20074;-83
2021/01/12 06:57:43;;;;;;;5.88;2.33;;;1.30;94.70;;;;;;4953578;28;20226;-80
2021/01/12 07:00:11;;;;;;;3.75;2.03;;;1.30;94.60;;;;;;4984444;28;20074;-82
2021/01/12 07:02:38;;;;;;;6.05;2.67;;;1.30;94.70;;;;;;4967374;28;20105;-80
2021/01/12 07:05:13;;;;;;;5.47;2.45;;;1.30;94.70;;;;;;4984173;28;20269;-83
2021/01/12 07:07:43;;;;;;;3.50;2.03;;;1.30;94.70;;;;;;4964918;28;20055;-82
2021/01/12 07:10:15;;;;;;;7.15;2.53;;;1.30;94.90;;;;;;4980951;28;20056;-82
2021/01/12 07:12:43;;;;;;;3.53;1.85;;;1.30;94.90;;;;;;4981761;28;20058;-81
2021/01/12 07:15:11;;;;;;;6.75;3.25;;;1.30;94.80;;;;;;4964146;28;20054;-82
2021/01/12 07:17:43;;;;;;;5.82;1.83;;;1.30;94.80;;;;;;4981348;28;20059;-81
2021/01/12 07:20:16;;;;;;;4.93;2.17;;;1.30;94.90;;;;;;4982068;28;20121;-80
2021/01/12 07:22:55;;;;;;;5.93;2.72;;;1.20;95.10;;;;;;4961663;28;20238;-82
2021/01/12 07:25:25;;;;;;;3.17;1.88;;;1.20;95.10;;;;;;4964431;28;20054;-83
2021/01/12 07:28:08;;;;;;;3.53;1.52;;;1.20;95.20;;;;;;4966259;28;20047;-83
2021/01/12 07:30:39;;;;;;;3.28;1.50;;;1.30;95.20;;;;;;4979665;28;20067;-83
2021/01/12 07:33:07;;;;;;;6.30;2.10;;;1.20;95.10;;;;;;4961073;28;20058;-80
2021/01/12 07:35:36;;;;;;;4.70;2.55;;;1.20;95.20;;;;;;4965501;28;20629;-84
2021/01/12 07:38:06;;;;;;;3.70;2.38;;;1.30;95.10;;;;;;4961902;28;20054;-82
2021/01/12 07:40:34;;;;;;;4.32;1.65;;;1.20;95.20;;;;;;4980262;28;20061;-82
2021/01/12 07:43:02;;;;;;;4.93;1.85;;;1.20;95.30;;;;;;4978941;28;20063;-83
2021/01/12 07:45:35;;;;;;;5.57;2.83;;;1.20;95.20;;;;;;4964779;28;20214;-81
2021/01/12 07:48:07;;;;;;;4.32;1.45;;;1.20;95.40;;;;;;4980422;28;20090;-80
2021/01/12 07:50:38;;;;;;;4.00;1.85;;;1.20;95.40;;;;;;4976501;28;20059;-83
2021/01/12 07:53:06;;;;;;;3.17;1.50;;;1.30;95.20;;;;;;4964497;28;20054;-79
2021/01/12 07:55:38;;;;;;;5.45;2.25;;;1.20;95.20;;;;;;4945536;28;20054;-84
2021/01/12 07:58:06;;;;;;;5.07;2.53;;;1.30;95.30;;;;;;4947332;28;20051;-83
2021/01/12 08:00:33;;;;;;;4.47;1.95;;;1.20;95.20;;;;;;4965512;28;20074;-82
2021/01/12 08:03:01;;;;;;;3.40;1.90;;;1.30;95.00;;;;;;4958464;28;20234;-83
2021/01/12 08:05:33;;;;;;;5.43;1.93;;;1.30;94.90;;;;;;4978947;28;20197;-85
2021/01/12 08:08:01;;;;;;;4.60;1.38;;;1.30;95.00;;;;;;4962081;28;20058;-84
2021/01/12 08:10:39;;;;;;;2.80;1.30;;;1.30;95.20;;;;;;4978400;28;20077;-83
2021/01/12 08:13:08;;;;;;;3.85;1.30;;;1.30;95.10;;;;;;4965384;28;20109;-82
2021/01/12 08:15:37;;;;;;;4.47;2.13;;;1.30;95.10;;;;;;4966055;28;20059;-80
2021/01/12 08:18:11;;;;;;;3.35;1.50;;;1.30;95.10;;;;;;4977800;28;20047;-79
2021/01/12 08:20:39;;;;;;;3.33;1.58;;;1.40;95.10;;;;;;4981826;28;20292;-82
2021/01/12 08:23:06;;;;;;;4.13;1.45;;;1.40;94.90;;;;;;4962198;28;20872;-82
2021/01/12 08:25:34;;;;;;;2.80;1.48;;;1.40;94.90;;;;;;4980781;28;20349;-83
2021/01/12 08:28:05;;;;;;;6.05;1.65;;;1.30;95.00;;;;;;4966281;28;20093;-83
2021/01/12 08:30:35;;;;;;;3.92;2.13;;;1.50;94.70;;;;;;4980850;28;20058;-84
2021/01/12 08:33:09;;;;;;;5.32;1.92;;;1.50;94.50;;;;;;4979343;28;20090;-82
2021/01/12 08:35:39;;;;;;;2.58;1.20;;;1.40;94.80;;;;;;4975294;28;20066;-83
2021/01/12 08:38:09;;;;;;;2.85;1.45;;;1.40;94.90;;;;;;4964043;28;20116;-81
2021/01/12 08:40:37;;;;;;;3.45;1.33;;;1.40;95.20;;;;;;4980872;28;20085;-81
2021/01/12 08:43:14;;;;;;;3.97;1.60;;;1.40;95.10;;;;;;4983025;28;20090;-85
2021/01/12 08:45:42;;;;;;;3.85;1.60;;;1.40;95.30;;;;;;4980124;28;20266;-82
2021/01/12 08:48:10;;;;;;;3.35;1.30;;;1.50;95.00;;;;;;4980280;28;20047;-83
2021/01/12 08:50:38;;;;;;;7.50;1.30;;;1.50;94.80;;;;;;4947743;28;20265;-81
2021/01/12 08:53:06;;;;;;;3.47;1.60;;;1.50;95.00;;;;;;4978202;28;20289;-84
2021/01/12 08:55:33;;;;;;;5.10;2.10;;;1.40;95.10;;;;;;4979627;28;20058;-83
2021/01/12 08:58:04;;;;;;;3.85;1.52;;;1.50;95.00;;;;;;4962282;28;20137;-82
2021/01/12 09:00:33;;;;;;;1.92;0.95;;;1.50;94.90;;;;;;4962176;28;20365;-82
2021/01/12 09:03:01;;;;;;;2.85;1.38;;;1.50;94.80;;;;;;4980845;28;20109;-82
2021/01/12 09:05:31;;;;;;;9.32;1.92;;;1.50;94.70;;;;;;4979122;28;20046;-83
2021/01/12 09:08:05;;;;;;;3.63;1.80;;;1.50;94.90;;;;;;4964865;28;20078;-82
2021/01/12 09:10:33;;;;;;;3.63;1.45;;;1.50;95.00;;;;;;4966627;28;20066;-81
2021/01/12 09:13:00;;;;;;;2.95;1.60;;;1.60;94.90;;;;;;4981537;28;20050;-83
2021/01/12 09:15:31;;;;;;;3.10;1.55;;;1.60;94.70;;;;;;4984325;28;20172;-83
2021/01/12 09:18:05;;;;;;;3.03;1.40;;;1.60;94.70;;;;;;4966789;28;20046;-83
2021/01/12 09:20:32;;;;;;;3.90;1.70;;;1.60;94.50;;;;;;4983324;28;20282;-82
2021/01/12 09:23:07;;;;;;;2.35;0.85;;;1.70;94.60;;;;;;4984849;28;20050;-80
2021/01/12 09:25:35;;;;;;;3.25;1.35;;;1.60;94.80;;;;;;4963307;28;20097;-83
2021/01/12 09:28:12;;;;;;;4.53;1.70;;;1.60;94.60;;;;;;4967060;28;20074;-82
2021/01/12 09:30:42;;;;;;;2.85;1.20;;;1.70;94.80;;;;;;4949459;28;20113;-81
2021/01/12 09:33:14;;;;;;;5.03;1.60;;;1.70;94.90;;;;;;4968700;28;20058;-82
2021/01/12 09:35:41;;;;;;;2.70;1.27;;;1.70;94.70;;;;;;4965304;28;20273;-82
2021/01/12 09:38:08;;;;;;;1.73;0.93;;;1.70;94.70;;;;;;4966084;28;20039;-86
2021/01/12 09:40:35;;;;;;;2.25;1.20;;;1.80;94.90;;;;;;4965444;28;20363;-84
2021/01/12 09:43:02;;;;;;;4.10;1.60;;;1.80;94.50;;;;;;4969346;28;20058;-79
2021/01/12 09:45:29;;;;;;;1.88;1.00;;;1.80;94.60;;;;;;4981233;28;20071;-80
2021/01/12 09:47:56;;;;;;;2.97;1.52;;;1.90;94.40;;;;;;4968174;28;20050;-81
2021/01/12 09:50:24;;;;;;;3.17;1.20;;;1.90;94.40;;;;;;4950438;28;20081;-82
2021/01/12 09:52:51;;;;;;;3.13;1.70;;;1.80;94.30;;;;;;4983331;28;20286;-84
2021/01/12 09:55:18;;;;;;;3.20;1.17;;;1.70;94.50;;;;;;4966784;28;20050;-83
2021/01/12 09:57:47;;;;;;;3.67;1.08;;;1.70;94.70;;;;;;4965735;28;20053;-82
2021/01/12 10:00:16;;;;;;;2.83;1.08;;;1.70;94.40;;;;;;4952622;28;20345;-81
2021/01/12 10:02:43;;;;;;;3.03;1.20;;;1.70;94.70;;;;;;4980627;28;20452;-81
2021/01/12 10:05:11;;;;;;;2.30;1.20;;;1.70;94.70;;;;;;4982691;28;20054;-82
2021/01/12 10:07:39;;;;;;;2.80;1.30;;;1.80;94.70;;;;;;4979184;28;20051;-83
2021/01/12 10:10:08;;;;;;;5.22;1.40;;;1.70;94.90;;;;;;4981522;28;20058;-83
2021/01/12 10:12:35;;;;;;;6.05;1.30;;;1.80;94.90;;;;;;4964681;28;20055;-82
2021/01/12 10:15:05;;;;;;;3.00;1.02;;;1.80;94.80;;;;;;4985263;28;20065;-81
2021/01/12 10:17:32;;;;;;;8.13;1.02;;;1.80;95.00;;;;;;4963589;28;20109;-82
2021/01/12 10:20:00;;;;;;;2.30;1.15;;;1.80;95.30;;;;;;4981693;28;20061;-83
2021/01/12 10:22:29;;;;;;;2.80;1.27;;;1.80;95.00;;;;;;4981528;28;20468;-81
2021/01/12 10:24:59;;;;;;;1.90;0.98;;;1.80;95.20;;;;;;4983038;28;20065;-82
2021/01/12 10:27:32;;;;;;;4.28;1.65;;;1.90;95.30;;;;;;4985299;28;20054;-80
2021/01/12 10:30:03;;;;;;;2.65;1.50;;;1.90;95.00;;;;;;4984709;28;20050;-81
2021/01/12 10:32:30;;;;;;;3.42;1.55;;;1.90;94.80;;;;;;4966305;28;20058;-83
2021/01/12 10:34:58;;;;;;;2.17;1.15;;;1.90;95.00;;;;;;4986920;28;20050;-81
2021/01/12 10:37:27;;;;;;;3.92;1.55;;;1.90;95.10;;;;;;4983973;28;20059;-83
2021/01/12 10:39:58;;;;;;;2.22;1.33;;;2.00;94.90;;;;;;4983913;28;20109;-81
2021/01/12 10:42:27;;;;;;;1.73;0.90;;;2.10;94.70;;;;;;4984982;28;20098;-82
2021/01/12 10:44:55;;;;;;;2.63;1.02;;;2.10;94.40;;;;;;4964760;28;20062;-84
2021/01/12 10:47:22;;;;;;;1.77;0.82;;;2.10;94.60;;;;;;4980682;28;20058;-82
2021/01/12 10:49:50;;;;;;;4.85;1.45;;;2.10;94.30;;;;;;4953825;28;20073;-83
2021/01/12 10:52:17;;;;;;;3.03;1.33;;;2.10;94.40;;;;;;4978358;28;20058;-81
2021/01/12 10:54:46;;;;;;;1.33;0.90;;;2.20;94.10;;;;;;4950124;28;20131;-81
2021/01/12 10:57:16;;;;;;;2.85;0.95;;;2.10;94.20;;;;;;4966364;28;20049;-84
2021/01/12 10:59:44;;;;;;;1.65;0.70;;;2.00;94.40;;;;;;4984446;28;20051;-84
2021/01/12 11:02:12;;;;;;;1.20;0.68;;;2.00;94.70;;;;;;4967676;28;20074;-84
2021/01/12 11:04:39;;;;;;;2.17;0.75;;;1.90;94.80;;;;;;4979772;28;20059;-84
2021/01/12 11:07:09;;;;;;;3.00;1.00;;;2.00;94.70;;;;;;4967758;28;20054;-80
2021/01/12 11:09:37;;;;;;;1.48;0.60;;;2.00;94.50;;;;;;4980405;28;20123;-84
2021/01/12 11:12:09;;;;;;;3.40;1.20;;;2.00;94.70;;;;;;4950304;28;20066;-81
2021/01/12 11:14:38;;;;;;;3.47;0.73;;;2.10;94.70;;;;;;4982525;28;20059;-81
2021/01/12 11:17:05;;;;;;;2.13;1.08;;;2.00;94.50;;;;;;4982713;28;20054;-81
2021/01/12 11:19:34;;;;;;;3.20;0.80;;;2.00;94.70;;;;;;4966679;28;20085;-85
2021/01/12 11:22:04;;;;;;;4.40;1.27;;;2.00;94.80;;;;;;4963909;28;20217;-81
2021/01/12 11:24:39;;;;;;;3.15;0.90;;;2.00;94.80;;;;;;4983189;28;20206;-83
2021/01/12 11:27:08;;;;;;;1.30;0.63;;;2.10;94.80;;;;;;4983042;28;20282;-81
2021/01/12 11:29:38;;;;;;;2.42;1.25;;;2.00;94.70;;;;;;4982160;28;20269;-84
2021/01/12 11:32:07;;;;;;;1.85;1.17;;;2.10;94.70;;;;;;4976586;28;20292;-83
2021/01/12 11:34:34;;;;;;;1.05;0.57;;;2.10;94.40;;;;;;4981522;28;20062;-82
2021/01/12 11:37:03;;;;;;;3.80;1.33;;;2.10;94.10;;;;;;4964986;28;20865;-82
2021/01/12 11:39:32;;;;;;;2.80;1.15;;;2.10;94.40;;;;;;4979123;28;20081;-85
2021/01/12 11:41:59;;;;;;;2.33;1.00;;;2.10;94.50;;;;;;4980195;28;20067;-84
2021/01/12 11:44:26;;;;;;;2.63;1.15;;;2.10;94.50;;;;;;4984835;28;20039;-84
2021/01/12 11:46:54;;;;;;;2.42;0.95;;;2.20;94.20;;;;;;4983621;28;20118;-83
2021/01/12 11:49:21;;;;;;;2.00;1.00;;;2.20;94.30;;;;;;4964324;28;20055;-83
2021/01/12 11:51:49;;;;;;;1.55;1.10;;;2.20;93.80;;;;;;4965046;28;20082;-83
2021/01/12 11:54:17;;;;;;;1.50;0.88;;;2.30;93.80;;;;;;4980958;28;20112;-83
2021/01/12 11:56:50;;;;;;;0.80;0.60;;;2.30;94.00;;;;;;4982827;28;20065;-85
2021/01/12 11:59:18;;;;;;;2.40;0.82;;;2.30;94.20;;;;;;4962302;28;20334;-86
2021/01/12 12:01:46;;;;;;;1.00;0.50;;;2.30;94.10;;;;;;4979192;28;20125;-83
2021/01/12 12:04:17;;;;;;;1.25;0.63;;;2.20;94.40;;;;;;4980192;28;20088;-84
2021/01/12 12:06:48;;;;;;;1.23;0.85;;;2.30;94.10;;;;;;4981695;28;20047;-82
2021/01/12 12:09:16;;;;;;;2.50;1.00;;;2.30;94.10;;;;;;4957717;28;20047;-82
2021/01/12 12:11:44;;;;;;;2.35;1.20;;;2.30;94.40;;;;;;4944284;28;20137;-82
2021/01/12 12:14:12;;;;;;;2.22;1.05;;;2.30;94.40;;;;;;4966616;28;20155;-81
2021/01/12 12:16:51;;;;;;;3.50;1.10;;;2.20;94.30;;;;;;4963793;28;20273;-82
2021/01/12 12:19:21;;;;;;;1.23;0.70;;;2.30;94.30;;;;;;4964476;28;20066;-82
2021/01/12 12:21:50;;;;;;;1.33;0.70;;;2.30;94.20;;;;;;4963195;28;20110;-83
2021/01/12 12:24:18;;;;;;;1.67;0.90;;;2.30;94.30;;;;;;4975984;28;20058;-84
2021/01/12 12:27:34;;;;;;;0.80;0.57;;;2.30;94.20;;;;;;4980059;28;20070;-81
2021/01/12 12:30:05;;;;;;;1.05;0.55;;;2.30;94.00;;;;;;4907941;28;20054;-82
2021/01/12 12:32:34;;;;;;;2.22;0.70;;;2.30;94.50;;;;;;4949263;28;20046;-82
2021/01/12 12:35:08;;;;;;;3.97;1.10;;;2.30;94.30;;;;;;4981123;28;20051;-82
2021/01/12 12:37:38;;;;;;;3.03;1.10;;;2.30;94.40;;;;;;4965783;28;20119;-83
2021/01/12 12:40:07;;;;;;;1.10;0.55;;;2.20;94.90;;;;;;4969319;28;20058;-82
2021/01/12 12:42:34;;;;;;;2.65;0.68;;;2.20;95.10;;;;;;4966781;28;20063;-83
2021/01/12 12:45:02;;;;;;;1.65;0.77;;;2.20;94.80;;;;;;4987549;28;20055;-83
2021/01/12 12:47:29;;;;;;;1.83;0.98;;;2.20;95.00;;;;;;4981099;28;20513;-84
2021/01/12 12:49:56;;;;;;;1.63;0.63;;;2.20;95.20;;;;;;4967984;28;20067;-83
2021/01/12 12:52:26;;;;;;;1.10;0.40;;;2.20;95.10;;;;;;4965802;28;20060;-81
2021/01/12 12:54:53;;;;;;;1.05;0.57;;;2.20;95.30;;;;;;4967626;28;20063;-83
2021/01/12 12:57:21;;;;;;;1.90;1.00;;;2.20;95.20;;;;;;4988948;28;20126;-84
2021/01/12 12:59:49;;;;;;;4.15;1.30;;;2.20;95.20;;;;;;4983434;28;20057;-82
2021/01/12 13:02:18;;;;;;;2.28;1.10;;;2.30;95.40;;;;;;4983507;28;20070;-83
2021/01/12 13:04:45;;;;;;;3.22;0.80;;;2.20;95.30;;;;;;4987065;28;20059;-82
2021/01/12 13:07:13;;;;;;;1.77;0.68;;;2.30;95.20;;;;;;4967685;28;20051;-81